Blackey, Kentucky
Current Conditions -  °F | °C
As of 10:15 PM on Thursday 27 Nov 2014 (Local Time) from KLNP Reporting Station
Light Snow Light Snow  
Wind Chill: 17°   Ceiling: 1200
Heat Index: 27°   Visibility: 5mi
Dew Point: 25°   Wind: 9mph
Humidity: 93%   Direction: 280°W
Pressure: 30.28"   Gusts: NA
Location:  37.14°N, 82.98°W
Report Text: KLNP 280315Z AUTO 28008KT 5SM -SN OVC012 M03/M04 A3028 RMK AO2
Loading
Personal Weather Stations






























Interactive Weather Map New forecast layout! Learn more

10-Day Weather Forecast

Advertisements
Track Severe Weather on mobile